< < Back
Terminal Aerodrome Forecast


Current Version              Previous Versions:   1  2  3  4  5  6  7  8  9  

Terminal Aerodrome Forecast

354
FTUS42 KILM 031148 CCB
TAFILM
TAF COR
KILM 031148Z 0312/0412 24008KT P6SM VCSH SCT015 BKN050
      TEMPO 0312/0314 4SM -SHRA BKN015
     FM031900 VRB20KT 3SM SHRA VCTS BKN020 BKN050CB
     FM032100 22012KT P6SM VCSH SCT060 BKN120
     FM040400 23007KT P6SM SCT070 BKN100=



Latest METAR

496
SAUS70 KWBC 041300 RRD
MTRILM
METAR KILM 041253Z 25013G21KT 10SM CLR 27/19 A3002 RMK AO2 SLP166
T02720194


USA.gov is the U.S. government's official web portal to all federal, state and local government web resources and services.